Mc Alpin, Florida
Current Conditions -  °F | °C
As of 10:55 AM on Friday 19 Dec 2014 (Local Time) from K24J Reporting Station
Clear Clear  
Wind Chill: 59°   Ceiling: Unl
Heat Index: 59°   Visibility: 1.2mi
Dew Point: 41°   Wind: 0mph
Humidity: 51%   Direction: NA
Pressure: 30.18"   Gusts: NA
Location:  30.1386°N, 82.9504°W
Report Text: K24J 191555Z AUTO 00000KT 1 1/4SM CLR 15/05 A3018 RMK AO1
Loading
Personal Weather Stations






























Interactive Weather Map New forecast layout! Learn more

10-Day Weather Forecast

Advertisements
Track Severe Weather on mobile